sensor_id;sensor_type;location;lat;lon;timestamp;temperature;humidity
67064;SHT30;58476;48.072;11.970;2023-06-14T00:00:15;24.22;39.03
67064;SHT30;58476;48.072;11.970;2023-06-14T00:02:41;24.18;39.09
67064;SHT30;58476;48.072;11.970;2023-06-14T00:05:07;24.18;39.14
67064;SHT30;58476;48.072;11.970;2023-06-14T00:07:37;24.18;39.16
67064;SHT30;58476;48.072;11.970;2023-06-14T00:10:03;24.15;39.25
67064;SHT30;58476;48.072;11.970;2023-06-14T00:12:29;24.14;39.17
67064;SHT30;58476;48.072;11.970;2023-06-14T00:14:54;24.11;39.32
67064;SHT30;58476;48.072;11.970;2023-06-14T00:17:19;24.08;39.29
67064;SHT30;58476;48.072;11.970;2023-06-14T00:19:45;24.10;39.29
67064;SHT30;58476;48.072;11.970;2023-06-14T00:22:10;24.04;39.29
67064;SHT30;58476;48.072;11.970;2023-06-14T00:24:36;24.04;39.27
67064;SHT30;58476;48.072;11.970;2023-06-14T00:27:01;24.01;39.28
67064;SHT30;58476;48.072;11.970;2023-06-14T00:29:28;23.98;39.35
67064;SHT30;58476;48.072;11.970;2023-06-14T00:31:53;24.00;39.23
67064;SHT30;58476;48.072;11.970;2023-06-14T00:34:19;23.98;39.21
67064;SHT30;58476;48.072;11.970;2023-06-14T00:36:44;23.97;39.16
67064;SHT30;58476;48.072;11.970;2023-06-14T00:39:13;23.97;39.08
67064;SHT30;58476;48.072;11.970;2023-06-14T00:41:39;24.00;39.10
67064;SHT30;58476;48.072;11.970;2023-06-14T00:44:04;23.93;39.08
67064;SHT30;58476;48.072;11.970;2023-06-14T00:46:30;23.93;38.90
67064;SHT30;58476;48.072;11.970;2023-06-14T00:48:56;23.93;38.99
67064;SHT30;58476;48.072;11.970;2023-06-14T00:51:22;23.92;38.86
67064;SHT30;58476;48.072;11.970;2023-06-14T00:53:47;23.92;39.07
67064;SHT30;58476;48.072;11.970;2023-06-14T00:56:14;23.88;39.08
67064;SHT30;58476;48.072;11.970;2023-06-14T00:58:41;23.93;39.13
67064;SHT30;58476;48.072;11.970;2023-06-14T01:01:06;23.88;38.87
67064;SHT30;58476;48.072;11.970;2023-06-14T01:03:33;23.88;38.99
67064;SHT30;58476;48.072;11.970;2023-06-14T01:06:15;23.93;38.93
67064;SHT30;58476;48.072;11.970;2023-06-14T01:09:09;23.96;38.89
67064;SHT30;58476;48.072;11.970;2023-06-14T01:11:47;23.97;38.87
67064;SHT30;58476;48.072;11.970;2023-06-14T01:14:16;23.98;38.72
67064;SHT30;58476;48.072;11.970;2023-06-14T01:16:42;24.00;38.52
67064;SHT30;58476;48.072;11.970;2023-06-14T01:19:10;24.01;38.37
67064;SHT30;58476;48.072;11.970;2023-06-14T01:21:39;24.04;38.36
67064;SHT30;58476;48.072;11.970;2023-06-14T01:24:05;24.04;38.24
67064;SHT30;58476;48.072;11.970;2023-06-14T01:26:30;24.07;38.46
67064;SHT30;58476;48.072;11.970;2023-06-14T01:28:59;24.08;38.25
67064;SHT30;58476;48.072;11.970;2023-06-14T01:31:24;24.07;38.36
67064;SHT30;58476;48.072;11.970;2023-06-14T01:33:51;24.08;38.23
67064;SHT30;58476;48.072;11.970;2023-06-14T01:36:18;24.10;38.36
67064;SHT30;58476;48.072;11.970;2023-06-14T01:38:44;24.10;38.27
67064;SHT30;58476;48.072;11.970;2023-06-14T01:41:10;24.08;38.34
67064;SHT30;58476;48.072;11.970;2023-06-14T01:43:37;24.08;38.41
67064;SHT30;58476;48.072;11.970;2023-06-14T01:46:05;24.07;38.45
67064;SHT30;58476;48.072;11.970;2023-06-14T01:48:31;24.11;38.33
67064;SHT30;58476;48.072;11.970;2023-06-14T01:50:57;24.11;38.38
67064;SHT30;58476;48.072;11.970;2023-06-14T01:53:22;24.11;38.35
67064;SHT30;58476;48.072;11.970;2023-06-14T01:55:47;24.07;38.45
67064;SHT30;58476;48.072;11.970;2023-06-14T01:58:13;24.08;38.33
67064;SHT30;58476;48.072;11.970;2023-06-14T02:00:38;24.07;38.39
67064;SHT30;58476;48.072;11.970;2023-06-14T02:03:03;24.10;38.41
67064;SHT30;58476;48.072;11.970;2023-06-14T02:05:29;24.10;38.39
67064;SHT30;58476;48.072;11.970;2023-06-14T02:07:54;24.08;38.15
67064;SHT30;58476;48.072;11.970;2023-06-14T02:10:20;24.07;38.48
67064;SHT30;58476;48.072;11.970;2023-06-14T02:12:46;24.03;38.53
67064;SHT30;58476;48.072;11.970;2023-06-14T02:15:11;24.03;38.73
67064;SHT30;58476;48.072;11.970;2023-06-14T02:17:37;24.00;38.92
67064;SHT30;58476;48.072;11.970;2023-06-14T02:20:06;24.00;38.82
67064;SHT30;58476;48.072;11.970;2023-06-14T02:22:31;23.98;38.74
67064;SHT30;58476;48.072;11.970;2023-06-14T02:24:56;23.96;38.68
67064;SHT30;58476;48.072;11.970;2023-06-14T02:27:22;23.94;38.78
67064;SHT30;58476;48.072;11.970;2023-06-14T02:29:47;23.92;38.78
67064;SHT30;58476;48.072;11.970;2023-06-14T02:32:12;23.92;38.75
67064;SHT30;58476;48.072;11.970;2023-06-14T02:34:38;23.87;38.77
67064;SHT30;58476;48.072;11.970;2023-06-14T02:37:03;23.88;38.80
67064;SHT30;58476;48.072;11.970;2023-06-14T02:39:29;23.88;38.92
67064;SHT30;58476;48.072;11.970;2023-06-14T02:41:54;23.86;38.80
67064;SHT30;58476;48.072;11.970;2023-06-14T02:44:24;23.81;38.85
67064;SHT30;58476;48.072;11.970;2023-06-14T02:46:49;23.83;38.98
67064;SHT30;58476;48.072;11.970;2023-06-14T02:49:16;23.81;39.23
67064;SHT30;58476;48.072;11.970;2023-06-14T02:51:41;23.81;39.08
67064;SHT30;58476;48.072;11.970;2023-06-14T02:54:07;23.77;39.06
67064;SHT30;58476;48.072;11.970;2023-06-14T02:56:32;23.77;38.95
67064;SHT30;58476;48.072;11.970;2023-06-14T02:58:58;23.78;38.97
67064;SHT30;58476;48.072;11.970;2023-06-14T03:01:25;23.76;39.03
67064;SHT30;58476;48.072;11.970;2023-06-14T03:03:51;23.73;39.05
67064;SHT30;58476;48.072;11.970;2023-06-14T03:06:16;23.70;39.21
67064;SHT30;58476;48.072;11.970;2023-06-14T03:08:43;23.71;38.99
67064;SHT30;58476;48.072;11.970;2023-06-14T03:11:13;23.70;39.01
67064;SHT30;58476;48.072;11.970;2023-06-14T03:13:38;23.70;39.00
67064;SHT30;58476;48.072;11.970;2023-06-14T03:16:05;23.69;39.08
67064;SHT30;58476;48.072;11.970;2023-06-14T03:18:34;23.67;39.16
67064;SHT30;58476;48.072;11.970;2023-06-14T03:20:59;23.66;39.27
67064;SHT30;58476;48.072;11.970;2023-06-14T03:23:26;23.64;39.38
67064;SHT30;58476;48.072;11.970;2023-06-14T03:25:52;23.66;38.95
67064;SHT30;58476;48.072;11.970;2023-06-14T03:28:17;23.62;39.50
67064;SHT30;58476;48.072;11.970;2023-06-14T03:30:43;23.60;39.56
67064;SHT30;58476;48.072;11.970;2023-06-14T03:33:08;23.63;39.46
67064;SHT30;58476;48.072;11.970;2023-06-14T03:35:37;23.63;38.65
67064;SHT30;58476;48.072;11.970;2023-06-14T03:38:02;23.63;38.86
67064;SHT30;58476;48.072;11.970;2023-06-14T03:40:28;23.63;39.44
67064;SHT30;58476;48.072;11.970;2023-06-14T03:42:59;23.66;39.26
67064;SHT30;58476;48.072;11.970;2023-06-14T03:45:25;23.67;38.93
67064;SHT30;58476;48.072;11.970;2023-06-14T03:47:50;23.67;38.62
67064;SHT30;58476;48.072;11.970;2023-06-14T03:50:17;23.70;38.92
67064;SHT30;58476;48.072;11.970;2023-06-14T03:52:42;23.73;38.89
67064;SHT30;58476;48.072;11.970;2023-06-14T03:55:08;23.77;38.99
67064;SHT30;58476;48.072;11.970;2023-06-14T03:57:34;23.78;38.69
67064;SHT30;58476;48.072;11.970;2023-06-14T03:59:59;23.76;38.78
67064;SHT30;58476;48.072;11.970;2023-06-14T04:02:26;23.80;38.77
67064;SHT30;58476;48.072;11.970;2023-06-14T04:04:51;23.83;39.01
67064;SHT30;58476;48.072;11.970;2023-06-14T04:07:16;23.86;39.09
67064;SHT30;58476;48.072;11.970;2023-06-14T04:09:42;23.92;40.54
67064;SHT30;58476;48.072;11.970;2023-06-14T04:12:08;23.94;40.53
67064;SHT30;58476;48.072;11.970;2023-06-14T04:14:33;23.94;40.22
67064;SHT30;58476;48.072;11.970;2023-06-14T04:17:00;23.98;39.76
67064;SHT30;58476;48.072;11.970;2023-06-14T04:19:25;23.94;39.87
67064;SHT30;58476;48.072;11.970;2023-06-14T04:21:52;24.00;39.83
67064;SHT30;58476;48.072;11.970;2023-06-14T04:24:17;24.01;40.00
67064;SHT30;58476;48.072;11.970;2023-06-14T04:26:46;24.04;40.65
67064;SHT30;58476;48.072;11.970;2023-06-14T04:29:13;24.04;40.44
67064;SHT30;58476;48.072;11.970;2023-06-14T04:31:40;24.01;40.22
67064;SHT30;58476;48.072;11.970;2023-06-14T04:34:08;24.07;40.32
67064;SHT30;58476;48.072;11.970;2023-06-14T04:36:35;24.05;40.45
67064;SHT30;58476;48.072;11.970;2023-06-14T04:39:01;24.10;40.43
67064;SHT30;58476;48.072;11.970;2023-06-14T04:41:27;24.13;40.25
67064;SHT30;58476;48.072;11.970;2023-06-14T04:43:52;24.11;39.97
67064;SHT30;58476;48.072;11.970;2023-06-14T04:47:17;24.08;39.91
67064;SHT30;58476;48.072;11.970;2023-06-14T04:49:43;24.05;39.97
67064;SHT30;58476;48.072;11.970;2023-06-14T04:52:08;24.08;40.09
67064;SHT30;58476;48.072;11.970;2023-06-14T04:54:36;24.07;40.40
67064;SHT30;58476;48.072;11.970;2023-06-14T04:57:03;24.08;40.72
67064;SHT30;58476;48.072;11.970;2023-06-14T04:59:29;24.05;40.71
67064;SHT30;58476;48.072;11.970;2023-06-14T05:01:55;24.05;40.72
67064;SHT30;58476;48.072;11.970;2023-06-14T05:04:21;24.01;40.47
67064;SHT30;58476;48.072;11.970;2023-06-14T05:06:47;24.00;40.69
67064;SHT30;58476;48.072;11.970;2023-06-14T05:09:15;24.01;40.59
67064;SHT30;58476;48.072;11.970;2023-06-14T05:11:40;23.96;40.76
67064;SHT30;58476;48.072;11.970;2023-06-14T05:14:05;23.93;40.56
67064;SHT30;58476;48.072;11.970;2023-06-14T05:16:31;23.90;40.67
67064;SHT30;58476;48.072;11.970;2023-06-14T05:18:56;23.88;40.61
67064;SHT30;58476;48.072;11.970;2023-06-14T05:21:22;23.86;40.89
67064;SHT30;58476;48.072;11.970;2023-06-14T05:23:47;23.84;40.13
67064;SHT30;58476;48.072;11.970;2023-06-14T05:26:13;23.81;40.59
67064;SHT30;58476;48.072;11.970;2023-06-14T05:28:38;23.80;40.40
67064;SHT30;58476;48.072;11.970;2023-06-14T05:31:03;23.78;40.19
67064;SHT30;58476;48.072;11.970;2023-06-14T05:33:28;23.78;40.51
67064;SHT30;58476;48.072;11.970;2023-06-14T05:35:54;23.77;40.30
67064;SHT30;58476;48.072;11.970;2023-06-14T05:38:19;23.74;40.23
67064;SHT30;58476;48.072;11.970;2023-06-14T05:40:45;23.74;40.45
67064;SHT30;58476;48.072;11.970;2023-06-14T05:43:10;23.73;40.29
67064;SHT30;58476;48.072;11.970;2023-06-14T05:45:35;23.71;40.41
67064;SHT30;58476;48.072;11.970;2023-06-14T05:48:01;23.71;40.38
67064;SHT30;58476;48.072;11.970;2023-06-14T05:50:26;23.67;39.95
67064;SHT30;58476;48.072;11.970;2023-06-14T05:52:52;23.69;39.84
67064;SHT30;58476;48.072;11.970;2023-06-14T05:55:18;23.70;39.83
67064;SHT30;58476;48.072;11.970;2023-06-14T05:57:43;23.69;39.85
67064;SHT30;58476;48.072;11.970;2023-06-14T06:00:09;23.66;40.03
67064;SHT30;58476;48.072;11.970;2023-06-14T06:02:37;23.69;40.14
67064;SHT30;58476;48.072;11.970;2023-06-14T06:05:03;23.70;40.42
67064;SHT30;58476;48.072;11.970;2023-06-14T06:07:28;23.67;40.65
67064;SHT30;58476;48.072;11.970;2023-06-14T06:09:53;23.70;40.85
67064;SHT30;58476;48.072;11.970;2023-06-14T06:12:19;23.74;40.87
67064;SHT30;58476;48.072;11.970;2023-06-14T06:14:44;23.74;40.77
67064;SHT30;58476;48.072;11.970;2023-06-14T06:17:09;23.76;40.80
67064;SHT30;58476;48.072;11.970;2023-06-14T06:19:35;23.76;40.90
67064;SHT30;58476;48.072;11.970;2023-06-14T06:22:00;23.83;40.92
67064;SHT30;58476;48.072;11.970;2023-06-14T06:24:25;23.87;41.13
67064;SHT30;58476;48.072;11.970;2023-06-14T06:26:51;23.90;40.94
67064;SHT30;58476;48.072;11.970;2023-06-14T06:29:16;23.90;40.96
67064;SHT30;58476;48.072;11.970;2023-06-14T06:31:41;23.93;41.04
67064;SHT30;58476;48.072;11.970;2023-06-14T06:34:07;23.94;40.87
67064;SHT30;58476;48.072;11.970;2023-06-14T06:36:32;23.93;40.86
67064;SHT30;58476;48.072;11.970;2023-06-14T06:38:57;23.92;40.86
67064;SHT30;58476;48.072;11.970;2023-06-14T06:41:23;23.96;40.87
67064;SHT30;58476;48.072;11.970;2023-06-14T06:43:48;23.96;40.62
67064;SHT30;58476;48.072;11.970;2023-06-14T06:46:15;23.98;40.88
67064;SHT30;58476;48.072;11.970;2023-06-14T06:48:41;23.98;40.79
67064;SHT30;58476;48.072;11.970;2023-06-14T06:51:06;24.00;40.88
67064;SHT30;58476;48.072;11.970;2023-06-14T06:53:31;24.00;40.81
67064;SHT30;58476;48.072;11.970;2023-06-14T06:55:57;24.00;40.90
67064;SHT30;58476;48.072;11.970;2023-06-14T06:58:22;24.04;40.67
67064;SHT30;58476;48.072;11.970;2023-06-14T07:00:47;24.03;40.62
67064;SHT30;58476;48.072;11.970;2023-06-14T07:03:13;24.04;40.67
67064;SHT30;58476;48.072;11.970;2023-06-14T07:05:38;24.08;40.83
67064;SHT30;58476;48.072;11.970;2023-06-14T07:08:03;24.05;40.85
67064;SHT30;58476;48.072;11.970;2023-06-14T07:10:29;24.08;40.76
67064;SHT30;58476;48.072;11.970;2023-06-14T07:12:54;24.07;40.53
67064;SHT30;58476;48.072;11.970;2023-06-14T07:15:19;24.11;40.73
67064;SHT30;58476;48.072;11.970;2023-06-14T07:17:45;24.10;40.76
67064;SHT30;58476;48.072;11.970;2023-06-14T07:20:10;24.07;40.81
67064;SHT30;58476;48.072;11.970;2023-06-14T07:22:36;24.05;40.72
67064;SHT30;58476;48.072;11.970;2023-06-14T07:25:01;24.01;40.57
67064;SHT30;58476;48.072;11.970;2023-06-14T07:27:26;24.03;40.84
67064;SHT30;58476;48.072;11.970;2023-06-14T07:29:52;24.00;40.88
67064;SHT30;58476;48.072;11.970;2023-06-14T07:32:17;24.01;40.87
67064;SHT30;58476;48.072;11.970;2023-06-14T07:34:42;24.00;40.78
67064;SHT30;58476;48.072;11.970;2023-06-14T07:37:08;23.96;40.91
67064;SHT30;58476;48.072;11.970;2023-06-14T07:39:33;23.96;40.96
67064;SHT30;58476;48.072;11.970;2023-06-14T07:41:58;23.96;41.04
67064;SHT30;58476;48.072;11.970;2023-06-14T07:44:24;23.97;41.20
67064;SHT30;58476;48.072;11.970;2023-06-14T07:46:49;23.94;41.43
67064;SHT30;58476;48.072;11.970;2023-06-14T07:49:15;23.94;41.30
67064;SHT30;58476;48.072;11.970;2023-06-14T07:51:40;23.93;41.47
67064;SHT30;58476;48.072;11.970;2023-06-14T07:54:05;23.92;41.44
67064;SHT30;58476;48.072;11.970;2023-06-14T07:56:31;23.93;41.40
67064;SHT30;58476;48.072;11.970;2023-06-14T07:58:56;23.92;41.28
67064;SHT30;58476;48.072;11.970;2023-06-14T08:01:21;23.92;41.26
67064;SHT30;58476;48.072;11.970;2023-06-14T08:03:46;23.92;41.42
67064;SHT30;58476;48.072;11.970;2023-06-14T08:06:12;23.93;41.24
67064;SHT30;58476;48.072;11.970;2023-06-14T08:08:37;23.88;41.55
67064;SHT30;58476;48.072;11.970;2023-06-14T08:11:02;23.88;41.57
67064;SHT30;58476;48.072;11.970;2023-06-14T08:13:28;23.87;41.38
67064;SHT30;58476;48.072;11.970;2023-06-14T08:15:53;23.87;41.39
67064;SHT30;58476;48.072;11.970;2023-06-14T08:18:18;23.88;41.24
67064;SHT30;58476;48.072;11.970;2023-06-14T08:20:44;23.87;41.20
67064;SHT30;58476;48.072;11.970;2023-06-14T08:23:10;23.86;41.51
67064;SHT30;58476;48.072;11.970;2023-06-14T08:25:35;23.84;41.03
67064;SHT30;58476;48.072;11.970;2023-06-14T08:28:00;23.86;41.04
67064;SHT30;58476;48.072;11.970;2023-06-14T08:30:26;23.87;41.29
67064;SHT30;58476;48.072;11.970;2023-06-14T08:32:51;23.88;41.24
67064;SHT30;58476;48.072;11.970;2023-06-14T08:35:17;23.88;41.48
67064;SHT30;58476;48.072;11.970;2023-06-14T08:37:42;23.96;41.48
67064;SHT30;58476;48.072;11.970;2023-06-14T08:40:19;23.98;41.32
67064;SHT30;58476;48.072;11.970;2023-06-14T08:42:47;24.00;41.50
67064;SHT30;58476;48.072;11.970;2023-06-14T08:45:13;24.03;41.13
67064;SHT30;58476;48.072;11.970;2023-06-14T08:47:38;24.04;41.51
67064;SHT30;58476;48.072;11.970;2023-06-14T08:50:04;24.07;41.54
67064;SHT30;58476;48.072;11.970;2023-06-14T08:52:33;24.07;41.39
67064;SHT30;58476;48.072;11.970;2023-06-14T08:55:00;24.13;41.38
67064;SHT30;58476;48.072;11.970;2023-06-14T08:57:26;24.15;41.35
67064;SHT30;58476;48.072;11.970;2023-06-14T08:59:53;24.18;41.37
67064;SHT30;58476;48.072;11.970;2023-06-14T09:02:18;24.20;41.32
67064;SHT30;58476;48.072;11.970;2023-06-14T09:04:44;24.21;41.28
67064;SHT30;58476;48.072;11.970;2023-06-14T09:07:09;24.21;41.29
67064;SHT30;58476;48.072;11.970;2023-06-14T09:09:38;24.25;41.21
67064;SHT30;58476;48.072;11.970;2023-06-14T09:12:07;24.25;41.19
67064;SHT30;58476;48.072;11.970;2023-06-14T09:14:33;24.24;41.22
67064;SHT30;58476;48.072;11.970;2023-06-14T09:16:58;24.26;41.18
67064;SHT30;58476;48.072;11.970;2023-06-14T09:19:24;24.28;41.19
67064;SHT30;58476;48.072;11.970;2023-06-14T09:21:49;24.26;41.17
67064;SHT30;58476;48.072;11.970;2023-06-14T09:24:15;24.26;41.13
67064;SHT30;58476;48.072;11.970;2023-06-14T09:26:40;24.26;41.11
67064;SHT30;58476;48.072;11.970;2023-06-14T09:29:05;24.28;41.05
67064;SHT30;58476;48.072;11.970;2023-06-14T09:31:31;24.26;41.09
67064;SHT30;58476;48.072;11.970;2023-06-14T09:33:56;24.31;40.94
67064;SHT30;58476;48.072;11.970;2023-06-14T09:36:24;24.28;40.91
67064;SHT30;58476;48.072;11.970;2023-06-14T09:41:18;24.29;40.89
67064;SHT30;58476;48.072;11.970;2023-06-14T09:43:44;24.28;40.98
67064;SHT30;58476;48.072;11.970;2023-06-14T09:46:10;24.22;40.95
67064;SHT30;58476;48.072;11.970;2023-06-14T09:48:35;24.22;40.92
67064;SHT30;58476;48.072;11.970;2023-06-14T09:51:01;24.21;41.14
67064;SHT30;58476;48.072;11.970;2023-06-14T09:53:29;24.26;41.45
67064;SHT30;58476;48.072;11.970;2023-06-14T09:55:56;24.31;42.46
67064;SHT30;58476;48.072;11.970;2023-06-14T09:58:23;24.35;42.35
67064;SHT30;58476;48.072;11.970;2023-06-14T10:00:50;24.36;42.68
67064;SHT30;58476;48.072;11.970;2023-06-14T10:03:23;24.36;42.07
67064;SHT30;58476;48.072;11.970;2023-06-14T10:05:50;24.35;42.07
67064;SHT30;58476;48.072;11.970;2023-06-14T10:08:18;24.35;42.04
67064;SHT30;58476;48.072;11.970;2023-06-14T10:10:44;24.35;41.83
67064;SHT30;58476;48.072;11.970;2023-06-14T10:13:10;24.36;42.20
67064;SHT30;58476;48.072;11.970;2023-06-14T10:15:58;24.35;42.56
67064;SHT30;58476;48.072;11.970;2023-06-14T10:18:39;24.31;42.35
67064;SHT30;58476;48.072;11.970;2023-06-14T10:23:51;24.29;42.39
67064;SHT30;58476;48.072;11.970;2023-06-14T10:26:22;24.28;42.49
67064;SHT30;58476;48.072;11.970;2023-06-14T10:29:01;24.29;42.54
67064;SHT30;58476;48.072;11.970;2023-06-14T10:31:48;24.28;42.46
67064;SHT30;58476;48.072;11.970;2023-06-14T10:34:24;24.26;42.36
67064;SHT30;58476;48.072;11.970;2023-06-14T10:39:27;24.24;42.51
67064;SHT30;58476;48.072;11.970;2023-06-14T10:41:54;24.26;42.54
67064;SHT30;58476;48.072;11.970;2023-06-14T10:46:46;24.22;42.50
67064;SHT30;58476;48.072;11.970;2023-06-14T10:49:12;24.22;42.55
67064;SHT30;58476;48.072;11.970;2023-06-14T10:51:45;24.26;42.57
67064;SHT30;58476;48.072;11.970;2023-06-14T10:54:14;24.29;42.43
67064;SHT30;58476;48.072;11.970;2023-06-14T10:56:53;24.31;42.25
67064;SHT30;58476;48.072;11.970;2023-06-14T10:59:19;24.34;42.32
67064;SHT30;58476;48.072;11.970;2023-06-14T11:04:52;24.38;41.83
67064;SHT30;58476;48.072;11.970;2023-06-14T11:12:47;24.45;41.55
67064;SHT30;58476;48.072;11.970;2023-06-14T11:15:13;24.44;41.47
67064;SHT30;58476;48.072;11.970;2023-06-14T11:17:39;24.47;41.41
67064;SHT30;58476;48.072;11.970;2023-06-14T11:20:09;24.48;41.28
67064;SHT30;58476;48.072;11.970;2023-06-14T11:22:43;24.47;41.46
67064;SHT30;58476;48.072;11.970;2023-06-14T11:25:11;24.48;41.47
67064;SHT30;58476;48.072;11.970;2023-06-14T11:27:37;24.51;41.36
67064;SHT30;58476;48.072;11.970;2023-06-14T11:30:03;24.54;41.49
67064;SHT30;58476;48.072;11.970;2023-06-14T11:32:31;24.54;41.36
67064;SHT30;58476;48.072;11.970;2023-06-14T11:34:56;24.54;41.29
67064;SHT30;58476;48.072;11.970;2023-06-14T11:37:22;24.59;41.66
67064;SHT30;58476;48.072;11.970;2023-06-14T11:39:47;24.59;41.70
67064;SHT30;58476;48.072;11.970;2023-06-14T11:42:16;24.59;41.63
67064;SHT30;58476;48.072;11.970;2023-06-14T11:44:41;24.64;41.60
67064;SHT30;58476;48.072;11.970;2023-06-14T11:47:06;24.65;41.40
67064;SHT30;58476;48.072;11.970;2023-06-14T11:49:36;24.66;41.51
67064;SHT30;58476;48.072;11.970;2023-06-14T11:52:01;24.72;41.32
67064;SHT30;58476;48.072;11.970;2023-06-14T11:54:27;24.75;41.24
67064;SHT30;58476;48.072;11.970;2023-06-14T11:56:52;24.80;41.34
67064;SHT30;58476;48.072;11.970;2023-06-14T11:59:18;24.82;41.50
67064;SHT30;58476;48.072;11.970;2023-06-14T12:01:43;24.83;41.46
67064;SHT30;58476;48.072;11.970;2023-06-14T12:04:09;24.82;41.40
67064;SHT30;58476;48.072;11.970;2023-06-14T12:06:34;24.87;41.40
67064;SHT30;58476;48.072;11.970;2023-06-14T12:08:59;24.86;41.65
67064;SHT30;58476;48.072;11.970;2023-06-14T12:11:32;24.87;41.60
67064;SHT30;58476;48.072;11.970;2023-06-14T12:13:58;24.96;41.85
67064;SHT30;58476;48.072;11.970;2023-06-14T12:16:30;24.94;41.93
67064;SHT30;58476;48.072;11.970;2023-06-14T12:18:55;24.94;41.86
67064;SHT30;58476;48.072;11.970;2023-06-14T12:21:22;24.93;41.59
67064;SHT30;58476;48.072;11.970;2023-06-14T12:23:49;24.93;41.66
67064;SHT30;58476;48.072;11.970;2023-06-14T12:26:16;24.90;41.60
67064;SHT30;58476;48.072;11.970;2023-06-14T12:28:42;24.92;41.44
67064;SHT30;58476;48.072;11.970;2023-06-14T12:31:09;24.89;41.73
67064;SHT30;58476;48.072;11.970;2023-06-14T12:33:34;24.90;41.85
67064;SHT30;58476;48.072;11.970;2023-06-14T12:36:03;24.87;42.12
67064;SHT30;58476;48.072;11.970;2023-06-14T12:38:28;24.87;41.82
67064;SHT30;58476;48.072;11.970;2023-06-14T12:40:54;24.87;41.85
67064;SHT30;58476;48.072;11.970;2023-06-14T12:43:19;24.89;41.58
67064;SHT30;58476;48.072;11.970;2023-06-14T12:45:44;24.86;41.54
67064;SHT30;58476;48.072;11.970;2023-06-14T12:48:10;24.85;41.75
67064;SHT30;58476;48.072;11.970;2023-06-14T12:50:35;24.83;41.57
67064;SHT30;58476;48.072;11.970;2023-06-14T12:53:00;24.83;41.65
67064;SHT30;58476;48.072;11.970;2023-06-14T12:55:26;24.85;41.67
67064;SHT30;58476;48.072;11.970;2023-06-14T12:57:51;24.82;41.99
67064;SHT30;58476;48.072;11.970;2023-06-14T13:00:17;24.85;42.66
67064;SHT30;58476;48.072;11.970;2023-06-14T13:02:43;24.85;42.43
67064;SHT30;58476;48.072;11.970;2023-06-14T13:05:09;24.85;42.47
67064;SHT30;58476;48.072;11.970;2023-06-14T13:07:34;24.85;42.37
67064;SHT30;58476;48.072;11.970;2023-06-14T13:09:59;24.87;42.36
67064;SHT30;58476;48.072;11.970;2023-06-14T13:12:25;24.83;42.84
67064;SHT30;58476;48.072;11.970;2023-06-14T13:14:50;24.82;42.92
67064;SHT30;58476;48.072;11.970;2023-06-14T13:17:15;24.83;43.07
67064;SHT30;58476;48.072;11.970;2023-06-14T13:19:40;24.82;43.06
67064;SHT30;58476;48.072;11.970;2023-06-14T13:22:06;24.80;43.52
67064;SHT30;58476;48.072;11.970;2023-06-14T13:24:31;24.79;43.53
67064;SHT30;58476;48.072;11.970;2023-06-14T13:26:57;24.80;43.30
67064;SHT30;58476;48.072;11.970;2023-06-14T13:29:25;24.83;43.62
67064;SHT30;58476;48.072;11.970;2023-06-14T13:31:51;24.85;43.56
67064;SHT30;58476;48.072;11.970;2023-06-14T13:34:16;24.90;43.78
67064;SHT30;58476;48.072;11.970;2023-06-14T13:36:41;24.93;43.76
67064;SHT30;58476;48.072;11.970;2023-06-14T13:39:07;24.99;43.87
67064;SHT30;58476;48.072;11.970;2023-06-14T13:41:32;25.00;44.04
67064;SHT30;58476;48.072;11.970;2023-06-14T13:43:58;25.07;43.97
67064;SHT30;58476;48.072;11.970;2023-06-14T13:46:23;25.10;44.29
67064;SHT30;58476;48.072;11.970;2023-06-14T13:48:49;25.12;44.23
67064;SHT30;58476;48.072;11.970;2023-06-14T13:51:14;25.13;44.18
67064;SHT30;58476;48.072;11.970;2023-06-14T13:53:39;25.16;44.16
67064;SHT30;58476;48.072;11.970;2023-06-14T13:56:05;25.23;44.38
67064;SHT30;58476;48.072;11.970;2023-06-14T13:58:30;25.22;44.36
67064;SHT30;58476;48.072;11.970;2023-06-14T14:00:55;25.28;44.52
67064;SHT30;58476;48.072;11.970;2023-06-14T14:03:21;25.28;44.55
67064;SHT30;58476;48.072;11.970;2023-06-14T14:05:46;25.31;44.50
67064;SHT30;58476;48.072;11.970;2023-06-14T14:08:11;25.34;44.56
67064;SHT30;58476;48.072;11.970;2023-06-14T14:10:36;25.37;44.63
67064;SHT30;58476;48.072;11.970;2023-06-14T14:13:02;25.41;44.21
67064;SHT30;58476;48.072;11.970;2023-06-14T14:15:27;25.41;44.06
67064;SHT30;58476;48.072;11.970;2023-06-14T14:17:52;25.44;44.15
67064;SHT30;58476;48.072;11.970;2023-06-14T14:20:18;25.44;44.33
67064;SHT30;58476;48.072;11.970;2023-06-14T14:22:43;25.38;44.18
67064;SHT30;58476;48.072;11.970;2023-06-14T14:25:09;25.38;44.37
67064;SHT30;58476;48.072;11.970;2023-06-14T14:27:34;25.41;44.34
67064;SHT30;58476;48.072;11.970;2023-06-14T14:30:00;25.41;44.31
67064;SHT30;58476;48.072;11.970;2023-06-14T14:32:25;25.40;44.40
67064;SHT30;58476;48.072;11.970;2023-06-14T14:34:50;25.43;44.40
67064;SHT30;58476;48.072;11.970;2023-06-14T14:37:16;25.43;44.76
67064;SHT30;58476;48.072;11.970;2023-06-14T14:39:41;25.44;45.21
67064;SHT30;58476;48.072;11.970;2023-06-14T14:42:07;25.40;45.31
67064;SHT30;58476;48.072;11.970;2023-06-14T14:44:32;25.43;45.06
67064;SHT30;58476;48.072;11.970;2023-06-14T14:46:57;25.45;45.14
67064;SHT30;58476;48.072;11.970;2023-06-14T14:49:23;25.47;45.03
67064;SHT30;58476;48.072;11.970;2023-06-14T14:51:48;25.51;45.06
67064;SHT30;58476;48.072;11.970;2023-06-14T14:54:13;25.47;45.10
67064;SHT30;58476;48.072;11.970;2023-06-14T14:56:39;25.44;45.18
67064;SHT30;58476;48.072;11.970;2023-06-14T14:59:04;25.45;45.00
67064;SHT30;58476;48.072;11.970;2023-06-14T15:01:29;25.43;45.17
67064;SHT30;58476;48.072;11.970;2023-06-14T15:03:55;25.40;45.26
67064;SHT30;58476;48.072;11.970;2023-06-14T15:06:20;25.38;45.44
67064;SHT30;58476;48.072;11.970;2023-06-14T15:08:45;25.38;45.28
67064;SHT30;58476;48.072;11.970;2023-06-14T15:11:10;25.34;45.38
67064;SHT30;58476;48.072;11.970;2023-06-14T15:13:36;25.31;45.48
67064;SHT30;58476;48.072;11.970;2023-06-14T15:16:01;25.30;45.40
67064;SHT30;58476;48.072;11.970;2023-06-14T15:18:26;25.26;45.45
67064;SHT30;58476;48.072;11.970;2023-06-14T15:20:52;25.22;45.50
67064;SHT30;58476;48.072;11.970;2023-06-14T15:23:17;25.23;45.64
67064;SHT30;58476;48.072;11.970;2023-06-14T15:25:42;25.23;45.55
67064;SHT30;58476;48.072;11.970;2023-06-14T15:28:08;25.17;45.64